Terminal Aerodrome Forecast
Issued by NWS

Home | Current Version | Previous Version | Text Only | Print | Product List | Glossary On
Versions: 1 2 3 4 5 6 7 8 9 10 11 12 13 14 15 16 17 18 19 20 21 22 23 24 25
000
FTUS45 KCYS 040540
TAFAIA
TAF
KAIA 040540Z 0406/0506 07008KT P6SM BKN150
     FM041100 06010KT P6SM -RA OVC080
     FM041800 09009KT P6SM OVC020
     FM050200 06010KT 3SM BR OVC007=

USA.gov is the U.S. government's official web portal to all federal, state and local government web resources and services.